Time;durP1;ratioP1;P1;durP2;ratioP2;P2;SDS_P1;SDS_P2;PMS_P1;PMS_P2;Temp;Humidity;BMP_temperature;BMP_pressure;BME280_temperature;BME280_humidity;BME280_pressure;Samples;Min_cycle;Max_cycle;Signal;HPM_P1;HPM_P2
2022/07/07 00:01:32;;;;;;;;;;;;;;;;;;5017092;28;19913;-78
2022/07/07 00:03:57;;;;;;;;;;;;;;;;;;5016893;28;19983;-78
2022/07/07 00:06:23;;;;;;;;;;;;;;;;;;5016879;28;19968;-78
2022/07/07 00:08:48;;;;;;;;;;;;;;;;;;5015587;28;19952;-78
2022/07/07 00:11:14;;;;;;;;;;;;;;;;;;5016467;28;19910;-78
2022/07/07 00:13:39;;;;;;;;;;;;;;;;;;5016821;28;20324;-78
2022/07/07 00:16:05;;;;;;;;;;;;;;;;;;5016485;28;19917;-78
2022/07/07 00:18:30;;;;;;;;;;;;;;;;;;5015265;28;19999;-78
2022/07/07 00:20:55;;;;;;;;;;;;;;;;;;5014989;28;19910;-78
2022/07/07 00:23:20;;;;;;;;;;;;;;;;;;5016809;28;19920;-78
2022/07/07 00:25:45;;;;;;;;;;;;;;;;;;5016242;28;19920;-78
2022/07/07 00:28:11;;;;;;;;;;;;;;;;;;5014996;28;19992;-78
2022/07/07 00:30:36;;;;;;;;;;;;;;;;;;5016581;28;19913;-76
2022/07/07 00:33:01;;;;;;;;;;;;;;;;;;5015599;28;19909;-78
2022/07/07 00:35:27;;;;;;;;;;;;;;;;;;5015095;28;19919;-78
2022/07/07 00:37:52;;;;;;;;;;;;;;;;;;5016299;28;19987;-78
2022/07/07 00:40:17;;;;;;;;;;;;;;;;;;5016864;28;19960;-79
2022/07/07 00:42:42;;;;;;;;;;;;;;;;;;5016500;28;19917;-78
2022/07/07 00:45:08;;;;;;;;;;;;;;;;;;5016274;28;19913;-79
2022/07/07 00:47:33;;;;;;;;;;;;;;;;;;4998848;28;19917;-79
2022/07/07 00:49:59;;;;;;;;;;;;;;;;;;5014821;28;20398;-79
2022/07/07 00:52:25;;;;;;;;;;;;;;;;;;5013959;28;19920;-78
2022/07/07 00:54:51;;;;;;;;;;;;;;;;;;5014522;28;19910;-79
2022/07/07 00:57:16;;;;;;;;;;;;;;;;;;5014407;28;19920;-79
2022/07/07 00:59:41;;;;;;;;;;;;;;;;;;5015944;28;20284;-78
2022/07/07 01:02:06;;;;;;;;;;;;;;;;;;5015625;28;19917;-78
2022/07/07 01:04:32;;;;;;;;;;;;;;;;;;5015622;28;19959;-78
2022/07/07 01:06:57;;;;;;;;;;;;;;;;;;5015748;28;19914;-78
2022/07/07 01:09:22;;;;;;;;;;;;;;;;;;5015921;28;19964;-78
2022/07/07 01:11:47;;;;;;;;;;;;;;;;;;5014149;28;19909;-78
2022/07/07 01:14:13;;;;;;;;;;;;;;;;;;5014000;28;20363;-78
2022/07/07 01:16:38;;;;;;;;;;;;;;;;;;5013996;28;20363;-78
2022/07/07 01:19:05;;;;;;;;;;;;;;;;;;5015537;28;20079;-77
2022/07/07 01:21:32;;;;;;;;;;;;;;;;;;4997558;28;19913;-78
2022/07/07 01:23:57;;;;;;;;;;;;;;;;;;5014254;28;19941;-78
2022/07/07 01:26:22;;;;;;;;;;;;;;;;;;5015302;28;20475;-78
2022/07/07 01:28:47;;;;;;;;;;;;;;;;;;5015055;28;19990;-78
2022/07/07 01:31:13;;;;;;;;;;;;;;;;;;5014058;28;19913;-78
2022/07/07 01:33:39;;;;;;;;;;;;;;;;;;5014844;28;19921;-78
2022/07/07 01:36:04;;;;;;;;;;;;;;;;;;5014891;28;19953;-78
2022/07/07 01:38:29;;;;;;;;;;;;;;;;;;5015060;28;19953;-78
2022/07/07 01:40:54;;;;;;;;;;;;;;;;;;5015060;28;20348;-78
2022/07/07 01:43:20;;;;;;;;;;;;;;;;;;5015178;28;19921;-78
2022/07/07 01:45:45;;;;;;;;;;;;;;;;;;5015292;28;19920;-78
2022/07/07 01:48:11;;;;;;;;;;;;;;;;;;5013958;28;19913;-78
2022/07/07 01:50:36;;;;;;;;;;;;;;;;;;5013752;28;19975;-78
2022/07/07 01:53:01;;;;;;;;;;;;;;;;;;5014707;28;19917;-78
2022/07/07 01:55:26;;;;;;;;;;;;;;;;;;5015111;28;19923;-78
2022/07/07 01:57:52;;;;;;;;;;;;;;;;;;5014605;28;19944;-78
2022/07/07 02:00:17;;;;;;;;;;;;;;;;;;5013177;28;19913;-78
2022/07/07 02:02:42;;;;;;;;;;;;;;;;;;5014336;28;20298;-78
2022/07/07 02:05:07;;;;;;;;;;;;;;;;;;5014653;28;19921;-78
2022/07/07 02:07:34;;;;;;;;;;;;;;;;;;5014904;28;19914;-78
2022/07/07 02:10:00;;;;;;;;;;;;;;;;;;5013420;28;19959;-78
2022/07/07 02:12:25;;;;;;;;;;;;;;;;;;5012897;28;19917;-78
2022/07/07 02:14:51;;;;;;;;;;;;;;;;;;5014604;28;19956;-78
2022/07/07 02:17:16;;;;;;;;;;;;;;;;;;5012916;28;20383;-78
2022/07/07 02:19:41;;;;;;;;;;;;;;;;;;5013405;28;20023;-78
2022/07/07 02:22:07;;;;;;;;;;;;;;;;;;5013809;28;19918;-78
2022/07/07 02:24:32;;;;;;;;;;;;;;;;;;5012844;28;19920;-78
2022/07/07 02:26:57;;;;;;;;;;;;;;;;;;5014032;28;19914;-78
2022/07/07 02:29:23;;;;;;;;;;;;;;;;;;5012888;28;19913;-78
2022/07/07 02:31:48;;;;;;;;;;;;;;;;;;5014206;28;19945;-78
2022/07/07 02:34:13;;;;;;;;;;;;;;;;;;5014665;28;19913;-78
2022/07/07 02:36:38;;;;;;;;;;;;;;;;;;5014177;28;19913;-78
2022/07/07 02:39:04;;;;;;;;;;;;;;;;;;5013903;28;19922;-78
2022/07/07 02:41:29;;;;;;;;;;;;;;;;;;5012560;28;19921;-79
2022/07/07 02:43:54;;;;;;;;;;;;;;;;;;5014534;28;20367;-78
2022/07/07 02:46:19;;;;;;;;;;;;;;;;;;5013801;28;20008;-79
2022/07/07 02:48:45;;;;;;;;;;;;;;;;;;5013659;28;19921;-79
2022/07/07 02:51:10;;;;;;;;;;;;;;;;;;5013741;28;19913;-78
2022/07/07 02:53:36;;;;;;;;;;;;;;;;;;5013813;28;19913;-79
2022/07/07 02:56:01;;;;;;;;;;;;;;;;;;5012604;28;20368;-79
2022/07/07 02:58:27;;;;;;;;;;;;;;;;;;5012610;28;19909;-79
2022/07/07 03:00:54;;;;;;;;;;;;;;;;;;5013920;28;19917;-79
2022/07/07 03:03:19;;;;;;;;;;;;;;;;;;5012910;28;20008;-79
2022/07/07 03:05:45;;;;;;;;;;;;;;;;;;5012880;28;19971;-79
2022/07/07 03:08:10;;;;;;;;;;;;;;;;;;4996046;28;20000;-79
2022/07/07 03:10:35;;;;;;;;;;;;;;;;;;5013904;28;19910;-79
2022/07/07 03:13:00;;;;;;;;;;;;;;;;;;5012283;28;20353;-78
2022/07/07 03:15:26;;;;;;;;;;;;;;;;;;5015742;28;20263;-77
2022/07/07 03:17:52;;;;;;;;;;;;;;;;;;4999846;28;19909;-77
2022/07/07 03:20:17;;;;;;;;;;;;;;;;;;5016984;28;20299;-77
2022/07/07 03:22:42;;;;;;;;;;;;;;;;;;5017548;28;19937;-77
2022/07/07 03:25:08;;;;;;;;;;;;;;;;;;5016414;28;20352;-78
2022/07/07 03:27:34;;;;;;;;;;;;;;;;;;5016118;28;19975;-77
2022/07/07 03:29:59;;;;;;;;;;;;;;;;;;5017397;28;19964;-77
2022/07/07 03:32:24;;;;;;;;;;;;;;;;;;5017138;28;19963;-77
2022/07/07 03:34:50;;;;;;;;;;;;;;;;;;5015833;28;19916;-78
2022/07/07 03:37:15;;;;;;;;;;;;;;;;;;5017234;28;19914;-77
2022/07/07 03:39:40;;;;;;;;;;;;;;;;;;5016830;28;19921;-77
2022/07/07 03:42:06;;;;;;;;;;;;;;;;;;5017267;28;19918;-77
2022/07/07 03:44:31;;;;;;;;;;;;;;;;;;5015957;28;20012;-77
2022/07/07 03:46:56;;;;;;;;;;;;;;;;;;5015890;28;19936;-78
2022/07/07 03:49:21;;;;;;;;;;;;;;;;;;4999204;28;19921;-77
2022/07/07 03:51:46;;;;;;;;;;;;;;;;;;5016666;28;19913;-78
2022/07/07 03:54:12;;;;;;;;;;;;;;;;;;5015661;28;20284;-77
2022/07/07 03:56:38;;;;;;;;;;;;;;;;;;5016595;28;19959;-77
2022/07/07 03:59:03;;;;;;;;;;;;;;;;;;5015761;28;19909;-77
2022/07/07 04:01:29;;;;;;;;;;;;;;;;;;5016534;28;19955;-77
2022/07/07 04:03:54;;;;;;;;;;;;;;;;;;5017215;28;19922;-78
2022/07/07 04:06:19;;;;;;;;;;;;;;;;;;5016517;28;19961;-77
2022/07/07 04:08:44;;;;;;;;;;;;;;;;;;5016852;28;19924;-77
2022/07/07 04:11:09;;;;;;;;;;;;;;;;;;5015653;28;19983;-79
2022/07/07 04:13:35;;;;;;;;;;;;;;;;;;5016391;28;19921;-79
2022/07/07 04:16:00;;;;;;;;;;;;;;;;;;5016487;28;19909;-79
2022/07/07 04:18:25;;;;;;;;;;;;;;;;;;5015484;28;19916;-79
2022/07/07 04:20:51;;;;;;;;;;;;;;;;;;5016486;28;19949;-80
2022/07/07 04:23:16;;;;;;;;;;;;;;;;;;5016535;28;20248;-80
2022/07/07 04:25:41;;;;;;;;;;;;;;;;;;5016253;28;19913;-80
2022/07/07 04:28:07;;;;;;;;;;;;;;;;;;5017070;28;19913;-79
2022/07/07 04:30:32;;;;;;;;;;;;;;;;;;5015063;28;19952;-86
2022/07/07 04:32:58;;;;;;;;;;;;;;;;;;5015902;28;19909;-81
2022/07/07 04:35:23;;;;;;;;;;;;;;;;;;5017102;28;19919;-79
2022/07/07 04:37:49;;;;;;;;;;;;;;;;;;5016692;28;20295;-80
2022/07/07 04:40:14;;;;;;;;;;;;;;;;;;5016532;28;19963;-80
2022/07/07 04:42:39;;;;;;;;;;;;;;;;;;5016354;28;19939;-81
2022/07/07 04:45:05;;;;;;;;;;;;;;;;;;5016711;28;19921;-80
2022/07/07 04:47:30;;;;;;;;;;;;;;;;;;5017352;28;19914;-80
2022/07/07 04:49:55;;;;;;;;;;;;;;;;;;5016148;28;20304;-79
2022/07/07 04:52:20;;;;;;;;;;;;;;;;;;5015031;28;19917;-82
2022/07/07 04:54:46;;;;;;;;;;;;;;;;;;5017138;28;19913;-83
2022/07/07 04:57:11;;;;;;;;;;;;;;;;;;4998919;28;19919;-80
2022/07/07 04:59:36;;;;;;;;;;;;;;;;;;5016742;28;19920;-82
2022/07/07 05:02:02;;;;;;;;;;;;;;;;;;5015551;28;19932;-82
2022/07/07 05:04:27;;;;;;;;;;;;;;;;;;5019188;28;20379;-85
2022/07/07 05:06:52;;;;;;;;;;;;;;;;;;5017634;28;19913;-84
2022/07/07 05:09:18;;;;;;;;;;;;;;;;;;5019014;28;20357;-82
2022/07/07 05:11:43;;;;;;;;;;;;;;;;;;5017472;28;19920;-83
2022/07/07 05:14:09;;;;;;;;;;;;;;;;;;5017245;28;19924;-83
2022/07/07 05:16:34;;;;;;;;;;;;;;;;;;5017510;28;19967;-83
2022/07/07 05:18:59;;;;;;;;;;;;;;;;;;5000352;28;20265;-81
2022/07/07 05:21:24;;;;;;;;;;;;;;;;;;5017335;28;19952;-81
2022/07/07 05:23:50;;;;;;;;;;;;;;;;;;5018490;28;20365;-80
2022/07/07 05:26:15;;;;;;;;;;;;;;;;;;5018035;28;19936;-81
2022/07/07 05:28:43;;;;;;;;;;;;;;;;;;5017985;28;19924;-81
2022/07/07 05:31:10;;;;;;;;;;;;;;;;;;5017068;28;19948;-81
2022/07/07 05:33:35;;;;;;;;;;;;;;;;;;5000623;28;19917;-81
2022/07/07 05:36:00;;;;;;;;;;;;;;;;;;5019176;28;19914;-81
2022/07/07 05:38:26;;;;;;;;;;;;;;;;;;5016468;28;20261;-80
2022/07/07 05:40:51;;;;;;;;;;;;;;;;;;5018805;28;19944;-81
2022/07/07 05:43:16;;;;;;;;;;;;;;;;;;5018282;28;20433;-85
2022/07/07 05:45:41;;;;;;;;;;;;;;;;;;5017939;28;19913;-83
2022/07/07 05:48:07;;;;;;;;;;;;;;;;;;5016968;28;19914;-82
2022/07/07 05:50:32;;;;;;;;;;;;;;;;;;5016612;28;20033;-80
2022/07/07 05:52:57;;;;;;;;;;;;;;;;;;5016809;28;19964;-80
2022/07/07 05:55:23;;;;;;;;;;;;;;;;;;5017344;28;19913;-80
2022/07/07 05:57:48;;;;;;;;;;;;;;;;;;5016369;28;19952;-80
2022/07/07 06:00:13;;;;;;;;;;;;;;;;;;5017287;28;19980;-80
2022/07/07 06:02:39;;;;;;;;;;;;;;;;;;5016475;28;19914;-80
2022/07/07 06:05:05;;;;;;;;;;;;;;;;;;5019134;28;19917;-81
2022/07/07 06:07:31;;;;;;;;;;;;;;;;;;5017974;28;19913;-81
2022/07/07 06:09:56;;;;;;;;;;;;;;;;;;5016459;28;20007;-80
2022/07/07 06:12:21;;;;;;;;;;;;;;;;;;5017305;28;20352;-81
2022/07/07 06:14:47;;;;;;;;;;;;;;;;;;5016856;28;19924;-81
2022/07/07 06:17:12;;;;;;;;;;;;;;;;;;5017200;28;19999;-80
2022/07/07 06:19:37;;;;;;;;;;;;;;;;;;5016408;28;20008;-81
2022/07/07 06:22:03;;;;;;;;;;;;;;;;;;5017142;28;19925;-80
2022/07/07 06:24:28;;;;;;;;;;;;;;;;;;5017767;28;20283;-80
2022/07/07 06:26:53;;;;;;;;;;;;;;;;;;5017626;28;19925;-81
2022/07/07 06:29:18;;;;;;;;;;;;;;;;;;5015071;28;19964;-81
2022/07/07 06:31:44;;;;;;;;;;;;;;;;;;5016958;28;19917;-81
2022/07/07 06:34:09;;;;;;;;;;;;;;;;;;5015833;28;19914;-81
2022/07/07 06:36:34;;;;;;;;;;;;;;;;;;5016945;28;20395;-81
2022/07/07 06:38:59;;;;;;;;;;;;;;;;;;5016912;28;19920;-81
2022/07/07 06:41:32;;;;;;;;;;;;;;;;;;5016940;28;19924;-81
2022/07/07 06:43:57;;;;;;;;;;;;;;;;;;5017885;28;19921;-80
2022/07/07 06:46:23;;;;;;;;;;;;;;;;;;4999433;28;19920;-80
2022/07/07 06:48:48;;;;;;;;;;;;;;;;;;5016034;28;19921;-80
2022/07/07 06:51:14;;;;;;;;;;;;;;;;;;5016555;28;19924;-80
2022/07/07 06:53:39;;;;;;;;;;;;;;;;;;5016287;28;19963;-80
2022/07/07 06:56:04;;;;;;;;;;;;;;;;;;5017062;28;19924;-80
2022/07/07 06:58:30;;;;;;;;;;;;;;;;;;5018128;28;19909;-80
2022/07/07 07:00:55;;;;;;;;;;;;;;;;;;5015397;28;19961;-80
2022/07/07 07:03:20;;;;;;;;;;;;;;;;;;5015928;28;20384;-80
2022/07/07 07:05:45;;;;;;;;;;;;;;;;;;5016594;28;19920;-80
2022/07/07 07:08:11;;;;;;;;;;;;;;;;;;5016291;28;20287;-80
2022/07/07 07:10:36;;;;;;;;;;;;;;;;;;5016437;28;19913;-80
2022/07/07 07:13:02;;;;;;;;;;;;;;;;;;5016407;28;20367;-80
2022/07/07 07:15:27;;;;;;;;;;;;;;;;;;5017471;28;19917;-81
2022/07/07 07:17:52;;;;;;;;;;;;;;;;;;5016208;28;20395;-80
2022/07/07 07:20:17;;;;;;;;;;;;;;;;;;5015269;28;19944;-80
2022/07/07 07:22:43;;;;;;;;;;;;;;;;;;5013431;28;19913;-80
2022/07/07 07:25:08;;;;;;;;;;;;;;;;;;5014334;28;19920;-80
2022/07/07 07:27:34;;;;;;;;;;;;;;;;;;5012674;28;19957;-80
2022/07/07 07:29:59;;;;;;;;;;;;;;;;;;5012622;28;19992;-80
2022/07/07 07:32:24;;;;;;;;;;;;;;;;;;5015916;28;19949;-81
2022/07/07 07:34:49;;;;;;;;;;;;;;;;;;5013650;28;19920;-80
2022/07/07 07:37:15;;;;;;;;;;;;;;;;;;5013924;28;20075;-80
2022/07/07 07:39:40;;;;;;;;;;;;;;;;;;5013696;28;19991;-80
2022/07/07 07:42:06;;;;;;;;;;;;;;;;;;5012432;28;19918;-80
2022/07/07 07:47:15;;;;;;;;;;;;;;;;;;5013856;28;19925;-80
2022/07/07 07:49:40;;;;;;;;;;;;;;;;;;5013354;28;20256;-81
2022/07/07 07:52:05;;;;;;;;;;;;;;;;;;5013768;28;19951;-80
2022/07/07 07:54:30;;;;;;;;;;;;;;;;;;5012329;28;19913;-81
2022/07/07 07:56:56;;;;;;;;;;;;;;;;;;5013319;28;19968;-80
2022/07/07 07:59:21;;;;;;;;;;;;;;;;;;5012311;28;20280;-79
2022/07/07 08:01:46;;;;;;;;;;;;;;;;;;5014796;28;19913;-80
2022/07/07 08:04:11;;;;;;;;;;;;;;;;;;5015813;28;19936;-79
2022/07/07 08:06:37;;;;;;;;;;;;;;;;;;5016820;28;19920;-80
2022/07/07 08:09:02;;;;;;;;;;;;;;;;;;5017383;28;19980;-80
2022/07/07 08:11:27;;;;;;;;;;;;;;;;;;5017076;28;19921;-80
2022/07/07 08:13:53;;;;;;;;;;;;;;;;;;5015566;28;19924;-80
2022/07/07 08:16:18;;;;;;;;;;;;;;;;;;5016920;28;20265;-80
2022/07/07 08:18:43;;;;;;;;;;;;;;;;;;5016973;28;19920;-81
2022/07/07 08:21:10;;;;;;;;;;;;;;;;;;5015374;28;20020;-80
2022/07/07 08:23:35;;;;;;;;;;;;;;;;;;5015891;28;19917;-80
2022/07/07 08:26:01;;;;;;;;;;;;;;;;;;5016784;28;19913;-79
2022/07/07 08:28:26;;;;;;;;;;;;;;;;;;5016671;28;19997;-80
2022/07/07 08:30:51;;;;;;;;;;;;;;;;;;5016749;28;20376;-80
2022/07/07 08:33:16;;;;;;;;;;;;;;;;;;5016944;28;19913;-80
2022/07/07 08:35:42;;;;;;;;;;;;;;;;;;5016348;28;19913;-80
2022/07/07 08:38:07;;;;;;;;;;;;;;;;;;5016248;28;19956;-79
2022/07/07 08:40:32;;;;;;;;;;;;;;;;;;5015058;28;20471;-80
2022/07/07 08:42:59;;;;;;;;;;;;;;;;;;5014930;28;19917;-79
2022/07/07 08:45:24;;;;;;;;;;;;;;;;;;5016571;28;20368;-79
2022/07/07 08:47:49;;;;;;;;;;;;;;;;;;5015956;28;19913;-79
2022/07/07 08:50:15;;;;;;;;;;;;;;;;;;5016402;28;19929;-79
2022/07/07 08:52:40;;;;;;;;;;;;;;;;;;5014753;28;19913;-80
2022/07/07 08:55:06;;;;;;;;;;;;;;;;;;5014524;28;20331;-79
2022/07/07 08:57:31;;;;;;;;;;;;;;;;;;4998259;28;20319;-79
2022/07/07 08:59:57;;;;;;;;;;;;;;;;;;5014620;28;20265;-80
2022/07/07 09:02:23;;;;;;;;;;;;;;;;;;5014582;28;19913;-82
2022/07/07 09:04:49;;;;;;;;;;;;;;;;;;5015234;28;20001;-81
2022/07/07 09:07:14;;;;;;;;;;;;;;;;;;5014526;28;19964;-80
2022/07/07 09:09:46;;;;;;;;;;;;;;;;;;5014884;28;19952;-81
2022/07/07 09:12:12;;;;;;;;;;;;;;;;;;5013788;28;19910;-80
2022/07/07 09:14:45;;;;;;;;;;;;;;;;;;5014400;28;20012;-81
2022/07/07 09:17:27;;;;;;;;;;;;;;;;;;5014396;28;19909;-80
2022/07/07 09:20:03;;;;;;;;;;;;;;;;;;5014605;28;19910;-80
2022/07/07 09:23:04;;;;;;;;;;;;;;;;;;5015694;28;20415;-81
2022/07/07 09:25:29;;;;;;;;;;;;;;;;;;4993918;28;19909;-81
2022/07/07 09:27:57;;;;;;;;;;;;;;;;;;4977711;28;19914;-81
2022/07/07 09:30:26;;;;;;;;;;;;;;;;;;4993679;28;19910;-81
2022/07/07 09:32:51;;;;;;;;;;;;;;;;;;4977778;28;19933;-81
2022/07/07 09:38:13;;;;;;;;;;;;;;;;;;4993717;28;20376;-81
2022/07/07 09:41:03;;;;;;;;;;;;;;;;;;4978525;28;19910;-81
2022/07/07 09:43:35;;;;;;;;;;;;;;;;;;4981916;28;19922;-80
2022/07/07 09:46:09;;;;;;;;;;;;;;;;;;4977294;28;19910;-80
2022/07/07 09:48:35;;;;;;;;;;;;;;;;;;4993200;28;19957;-80
2022/07/07 09:51:14;;;;;;;;;;;;;;;;;;4977130;28;20457;-81
2022/07/07 09:53:55;;;;;;;;;;;;;;;;;;4977392;28;19910;-81
2022/07/07 09:56:21;;;;;;;;;;;;;;;;;;4993535;28;19921;-80
2022/07/07 09:58:46;;;;;;;;;;;;;;;;;;4998380;28;19913;-81
2022/07/07 10:01:12;;;;;;;;;;;;;;;;;;5015008;28;19963;-81
2022/07/07 10:03:37;;;;;;;;;;;;;;;;;;4997888;28;19964;-81
2022/07/07 10:06:02;;;;;;;;;;;;;;;;;;4997870;28;19967;-80
2022/07/07 10:08:28;;;;;;;;;;;;;;;;;;5015400;28;20364;-81
2022/07/07 10:10:54;;;;;;;;;;;;;;;;;;5015189;28;20439;-82
2022/07/07 10:13:19;;;;;;;;;;;;;;;;;;5016525;28;19953;-83
2022/07/07 10:15:44;;;;;;;;;;;;;;;;;;5016387;28;19924;-83
2022/07/07 10:18:09;;;;;;;;;;;;;;;;;;5014844;28;19913;-82
2022/07/07 10:20:35;;;;;;;;;;;;;;;;;;5017080;28;20252;-83
2022/07/07 10:23:00;;;;;;;;;;;;;;;;;;5015728;28;19918;-82
2022/07/07 10:25:26;;;;;;;;;;;;;;;;;;5015322;28;19909;-83
2022/07/07 10:27:51;;;;;;;;;;;;;;;;;;5014347;28;20000;-82
2022/07/07 10:30:34;;;;;;;;;;;;;;;;;;5014135;28;19913;-83
2022/07/07 10:33:01;;;;;;;;;;;;;;;;;;5016065;28;20261;-82
2022/07/07 10:35:27;;;;;;;;;;;;;;;;;;5014578;28;19909;-82
2022/07/07 10:37:53;;;;;;;;;;;;;;;;;;4999410;28;19918;-83
2022/07/07 10:40:20;;;;;;;;;;;;;;;;;;5015476;28;19917;-83
2022/07/07 10:43:04;;;;;;;;;;;;;;;;;;5014930;28;19917;-83
2022/07/07 10:45:29;;;;;;;;;;;;;;;;;;5016180;28;20020;-83
2022/07/07 10:47:55;;;;;;;;;;;;;;;;;;5015338;28;19964;-83
2022/07/07 10:50:30;;;;;;;;;;;;;;;;;;5014198;28;19917;-83
2022/07/07 10:52:57;;;;;;;;;;;;;;;;;;5014524;28;19957;-85
2022/07/07 10:55:42;;;;;;;;;;;;;;;;;;4996985;28;20364;-86
2022/07/07 10:58:07;;;;;;;;;;;;;;;;;;5012736;28;19909;-81
2022/07/07 11:00:32;;;;;;;;;;;;;;;;;;5014158;28;20406;-81
2022/07/07 11:02:58;;;;;;;;;;;;;;;;;;5013503;28;19924;-81
2022/07/07 11:05:24;;;;;;;;;;;;;;;;;;5015613;28;19916;-81
2022/07/07 11:07:56;;;;;;;;;;;;;;;;;;4997412;28;19959;-81
2022/07/07 11:10:21;;;;;;;;;;;;;;;;;;5015536;28;19915;-81
2022/07/07 11:12:54;;;;;;;;;;;;;;;;;;5014923;28;19910;-81
2022/07/07 11:15:27;;;;;;;;;;;;;;;;;;5014023;28;20387;-79
2022/07/07 11:17:52;;;;;;;;;;;;;;;;;;5012822;28;20028;-76
2022/07/07 11:20:18;;;;;;;;;;;;;;;;;;5014166;28;20495;-76
2022/07/07 11:22:43;;;;;;;;;;;;;;;;;;4996551;28;20060;-76
2022/07/07 11:25:08;;;;;;;;;;;;;;;;;;5014576;28;19937;-76
2022/07/07 11:27:35;;;;;;;;;;;;;;;;;;5013452;28;19965;-76
2022/07/07 11:30:00;;;;;;;;;;;;;;;;;;5012453;28;20279;-75
2022/07/07 11:32:25;;;;;;;;;;;;;;;;;;5012395;28;19910;-76
2022/07/07 11:34:51;;;;;;;;;;;;;;;;;;4996415;28;20356;-76
2022/07/07 11:37:19;;;;;;;;;;;;;;;;;;5015853;28;19976;-76
2022/07/07 11:39:44;;;;;;;;;;;;;;;;;;5017376;28;19909;-76
2022/07/07 11:42:10;;;;;;;;;;;;;;;;;;5016387;28;20310;-76
2022/07/07 11:44:35;;;;;;;;;;;;;;;;;;5017597;28;20011;-76
2022/07/07 11:47:00;;;;;;;;;;;;;;;;;;5017265;28;19913;-76
2022/07/07 11:49:25;;;;;;;;;;;;;;;;;;5017056;28;19918;-76
2022/07/07 11:51:51;;;;;;;;;;;;;;;;;;5017503;28;20413;-76
2022/07/07 11:54:16;;;;;;;;;;;;;;;;;;4999655;28;19913;-76
2022/07/07 11:56:41;;;;;;;;;;;;;;;;;;5016048;28;19991;-76
2022/07/07 11:59:07;;;;;;;;;;;;;;;;;;4999295;28;19921;-77
2022/07/07 12:01:33;;;;;;;;;;;;;;;;;;5016865;28;19910;-76
2022/07/07 12:04:00;;;;;;;;;;;;;;;;;;5015628;28;19913;-76
2022/07/07 12:06:28;;;;;;;;;;;;;;;;;;5016265;28;19920;-76
2022/07/07 12:08:53;;;;;;;;;;;;;;;;;;5017119;28;20260;-76
2022/07/07 12:11:20;;;;;;;;;;;;;;;;;;5015808;28;19921;-77
2022/07/07 12:13:45;;;;;;;;;;;;;;;;;;5015565;28;19925;-76
2022/07/07 12:16:11;;;;;;;;;;;;;;;;;;5015433;28;20375;-76
2022/07/07 12:18:36;;;;;;;;;;;;;;;;;;5016957;28;19917;-76
2022/07/07 12:21:05;;;;;;;;;;;;;;;;;;5016685;28;19910;-76
2022/07/07 12:23:34;;;;;;;;;;;;;;;;;;5015594;28;20008;-76
2022/07/07 12:26:10;;;;;;;;;;;;;;;;;;5016476;28;19909;-76
2022/07/07 12:28:36;;;;;;;;;;;;;;;;;;5016744;28;19920;-76
2022/07/07 12:31:01;;;;;;;;;;;;;;;;;;5015785;28;19914;-76
2022/07/07 12:33:39;;;;;;;;;;;;;;;;;;5015245;28;19910;-76
2022/07/07 12:36:17;;;;;;;;;;;;;;;;;;5015086;28;20345;-76
2022/07/07 12:38:46;;;;;;;;;;;;;;;;;;5015208;28;19909;-80
2022/07/07 12:41:21;;;;;;;;;;;;;;;;;;5015031;28;19932;-77
2022/07/07 12:43:46;;;;;;;;;;;;;;;;;;5015953;28;19956;-76
2022/07/07 12:46:11;;;;;;;;;;;;;;;;;;5017477;28;20360;-77
2022/07/07 12:48:48;;;;;;;;;;;;;;;;;;5014827;28;19918;-78
2022/07/07 12:51:14;;;;;;;;;;;;;;;;;;5014859;28;19963;-77
2022/07/07 12:53:39;;;;;;;;;;;;;;;;;;5015040;28;20008;-77
2022/07/07 12:56:08;;;;;;;;;;;;;;;;;;5015108;28;19974;-77
2022/07/07 12:58:43;;;;;;;;;;;;;;;;;;5015021;28;19963;-76
2022/07/07 13:01:12;;;;;;;;;;;;;;;;;;5014688;28;19909;-77
2022/07/07 13:03:37;;;;;;;;;;;;;;;;;;5014593;28;19921;-75
2022/07/07 13:06:03;;;;;;;;;;;;;;;;;;5016382;28;19914;-77
2022/07/07 13:08:28;;;;;;;;;;;;;;;;;;5015757;28;19920;-77
2022/07/07 13:10:53;;;;;;;;;;;;;;;;;;5014755;28;20372;-77
2022/07/07 13:13:18;;;;;;;;;;;;;;;;;;5014318;28;19957;-75
2022/07/07 13:15:44;;;;;;;;;;;;;;;;;;5015496;28;20369;-77
2022/07/07 13:18:09;;;;;;;;;;;;;;;;;;5014378;28;19913;-77
2022/07/07 13:20:34;;;;;;;;;;;;;;;;;;5014807;28;19967;-77
2022/07/07 13:23:00;;;;;;;;;;;;;;;;;;5015905;28;19968;-78
2022/07/07 13:25:25;;;;;;;;;;;;;;;;;;5016035;28;20056;-78
2022/07/07 13:27:51;;;;;;;;;;;;;;;;;;5015926;28;19913;-77
2022/07/07 13:30:16;;;;;;;;;;;;;;;;;;5016077;28;19910;-77
2022/07/07 13:32:43;;;;;;;;;;;;;;;;;;5015614;28;20387;-77
2022/07/07 13:35:09;;;;;;;;;;;;;;;;;;5015329;28;19920;-77
2022/07/07 13:37:34;;;;;;;;;;;;;;;;;;5014658;28;20283;-77
2022/07/07 13:39:59;;;;;;;;;;;;;;;;;;5015951;28;19984;-77
2022/07/07 13:42:24;;;;;;;;;;;;;;;;;;5015419;28;19925;-76
2022/07/07 13:44:50;;;;;;;;;;;;;;;;;;5015883;28;20403;-77
2022/07/07 13:47:15;;;;;;;;;;;;;;;;;;5015562;28;19917;-77
2022/07/07 13:49:40;;;;;;;;;;;;;;;;;;5014967;28;19968;-77
2022/07/07 13:52:06;;;;;;;;;;;;;;;;;;5013714;28;20364;-76
2022/07/07 13:54:33;;;;;;;;;;;;;;;;;;5013776;28;19992;-76
2022/07/07 13:56:58;;;;;;;;;;;;;;;;;;5013798;28;19920;-77
2022/07/07 13:59:23;;;;;;;;;;;;;;;;;;5014522;28;19917;-77
2022/07/07 14:01:49;;;;;;;;;;;;;;;;;;5013875;28;20383;-76
2022/07/07 14:04:14;;;;;;;;;;;;;;;;;;5015170;28;19918;-76
2022/07/07 14:06:39;;;;;;;;;;;;;;;;;;5014969;28;19913;-76
2022/07/07 14:09:05;;;;;;;;;;;;;;;;;;5014461;28;19917;-77
2022/07/07 14:11:30;;;;;;;;;;;;;;;;;;5014425;28;19913;-76
2022/07/07 14:13:56;;;;;;;;;;;;;;;;;;5013092;28;19921;-77
2022/07/07 14:16:21;;;;;;;;;;;;;;;;;;5014836;28;20383;-77
2022/07/07 14:18:46;;;;;;;;;;;;;;;;;;5013441;28;20063;-76
2022/07/07 14:21:11;;;;;;;;;;;;;;;;;;5013776;28;20013;-76
2022/07/07 14:23:37;;;;;;;;;;;;;;;;;;5015085;28;19968;-77
2022/07/07 14:26:02;;;;;;;;;;;;;;;;;;5014977;28;19913;-76
2022/07/07 14:28:27;;;;;;;;;;;;;;;;;;5015363;28;19909;-79
2022/07/07 14:30:53;;;;;;;;;;;;;;;;;;5014024;28;20422;-78
2022/07/07 14:33:18;;;;;;;;;;;;;;;;;;5015443;28;20015;-78
2022/07/07 14:35:43;;;;;;;;;;;;;;;;;;5012714;28;19914;-78
2022/07/07 14:38:09;;;;;;;;;;;;;;;;;;5013719;28;19914;-78
2022/07/07 14:40:34;;;;;;;;;;;;;;;;;;5013406;28;19968;-78
2022/07/07 14:42:59;;;;;;;;;;;;;;;;;;5012280;28;19967;-77
2022/07/07 14:45:25;;;;;;;;;;;;;;;;;;5013160;28;20380;-78
2022/07/07 14:47:50;;;;;;;;;;;;;;;;;;5013496;28;19913;-78
2022/07/07 14:50:16;;;;;;;;;;;;;;;;;;5012475;28;19921;-78
2022/07/07 14:52:41;;;;;;;;;;;;;;;;;;5011355;28;19918;-79
2022/07/07 14:55:06;;;;;;;;;;;;;;;;;;5012512;28;19913;-78
2022/07/07 14:57:31;;;;;;;;;;;;;;;;;;5011470;28;19920;-78
2022/07/07 14:59:57;;;;;;;;;;;;;;;;;;5010927;28;19920;-79
2022/07/07 15:02:22;;;;;;;;;;;;;;;;;;5010989;28;19913;-78
2022/07/07 15:04:48;;;;;;;;;;;;;;;;;;5012439;28;20265;-78
2022/07/07 15:07:13;;;;;;;;;;;;;;;;;;4995066;28;19917;-78
2022/07/07 15:09:38;;;;;;;;;;;;;;;;;;5012327;28;19924;-78
2022/07/07 15:12:04;;;;;;;;;;;;;;;;;;5015234;28;19913;-78
2022/07/07 15:14:29;;;;;;;;;;;;;;;;;;5014265;28;19913;-79
2022/07/07 15:16:54;;;;;;;;;;;;;;;;;;5016005;28;19968;-79
2022/07/07 15:19:20;;;;;;;;;;;;;;;;;;5015620;28;20364;-78
2022/07/07 15:21:45;;;;;;;;;;;;;;;;;;5015890;28;20309;-78
2022/07/07 15:24:10;;;;;;;;;;;;;;;;;;5015583;28;19917;-79
2022/07/07 15:26:36;;;;;;;;;;;;;;;;;;5015706;28;19919;-79
2022/07/07 15:29:01;;;;;;;;;;;;;;;;;;5015649;28;19980;-79
2022/07/07 15:31:26;;;;;;;;;;;;;;;;;;5015420;28;20331;-80
2022/07/07 15:33:52;;;;;;;;;;;;;;;;;;5014627;28;20327;-84
2022/07/07 15:36:17;;;;;;;;;;;;;;;;;;4998608;28;20008;-81
2022/07/07 15:38:42;;;;;;;;;;;;;;;;;;5016428;28;20361;-83
2022/07/07 15:41:08;;;;;;;;;;;;;;;;;;5016012;28;19909;-81
2022/07/07 15:43:34;;;;;;;;;;;;;;;;;;5015112;28;19952;-81
2022/07/07 15:45:59;;;;;;;;;;;;;;;;;;5014796;28;19963;-80
2022/07/07 15:50:57;;;;;;;;;;;;;;;;;;5132091;27;20003;-80
2022/07/07 15:53:22;;;;;;;;;;;;;;;;;;5130992;28;19970;-80
2022/07/07 15:55:48;;;;;;;;;;;;;;;;;;5132430;28;20396;-81
2022/07/07 15:58:13;;;;;;;;;;;;;;;;;;5130849;28;19915;-80
2022/07/07 16:00:38;;;;;;;;;;;;;;;;;;5130934;28;19916;-81
2022/07/07 16:03:04;;;;;;;;;;;;;;;;;;5131986;28;20405;-81
2022/07/07 16:05:29;;;;;;;;;;;;;;;;;;5130904;28;19916;-81
2022/07/07 16:07:54;;;;;;;;;;;;;;;;;;5131093;28;19916;-81
2022/07/07 16:10:19;;;;;;;;;;;;;;;;;;5132119;28;20383;-81
2022/07/07 16:12:45;;;;;;;;;;;;;;;;;;5130625;28;19916;-80
2022/07/07 16:15:10;;;;;;;;;;;;;;;;;;5131961;28;19915;-81
2022/07/07 16:17:35;;;;;;;;;;;;;;;;;;5113607;28;20007;-81
2022/07/07 16:20:01;;;;;;;;;;;;;;;;;;5130676;28;19919;-80
2022/07/07 16:22:26;;;;;;;;;;;;;;;;;;5130858;28;20010;-80
2022/07/07 16:24:51;;;;;;;;;;;;;;;;;;5130427;28;19994;-80
2022/07/07 16:27:17;;;;;;;;;;;;;;;;;;5131664;28;19916;-80
2022/07/07 16:29:42;;;;;;;;;;;;;;;;;;5131466;28;19973;-80
2022/07/07 16:32:07;;;;;;;;;;;;;;;;;;5130260;28;19924;-79
2022/07/07 16:34:33;;;;;;;;;;;;;;;;;;5131641;28;20309;-80
2022/07/07 16:36:58;;;;;;;;;;;;;;;;;;5130309;28;19915;-79
2022/07/07 16:39:25;;;;;;;;;;;;;;;;;;5131299;28;19919;-80
2022/07/07 16:41:51;;;;;;;;;;;;;;;;;;5131218;28;19937;-80
2022/07/07 16:44:16;;;;;;;;;;;;;;;;;;5131803;28;19912;-79
2022/07/07 16:46:41;;;;;;;;;;;;;;;;;;5112735;28;19911;-80